sensor_id;sensor_type;location;lat;lon;timestamp;temperature;humidity
35970;DHT22;22448;51.298;6.430;2022-12-05T00:03:57;2.20;99.90
35970;DHT22;22448;51.298;6.430;2022-12-05T00:06:26;2.20;99.90
35970;DHT22;22448;51.298;6.430;2022-12-05T00:08:53;2.20;99.90
35970;DHT22;22448;51.298;6.430;2022-12-05T00:11:23;2.20;99.90
35970;DHT22;22448;51.298;6.430;2022-12-05T00:13:52;2.20;99.90
35970;DHT22;22448;51.298;6.430;2022-12-05T00:16:21;2.20;99.90
35970;DHT22;22448;51.298;6.430;2022-12-05T00:18:49;2.20;99.90
35970;DHT22;22448;51.298;6.430;2022-12-05T00:21:22;2.20;99.90
35970;DHT22;22448;51.298;6.430;2022-12-05T00:23:50;2.20;99.90
35970;DHT22;22448;51.298;6.430;2022-12-05T00:26:18;2.20;99.90
35970;DHT22;22448;51.298;6.430;2022-12-05T00:28:45;2.20;99.90
35970;DHT22;22448;51.298;6.430;2022-12-05T00:31:15;2.20;99.90
35970;DHT22;22448;51.298;6.430;2022-12-05T00:33:43;2.20;99.90
35970;DHT22;22448;51.298;6.430;2022-12-05T00:36:16;2.20;99.90
35970;DHT22;22448;51.298;6.430;2022-12-05T00:38:44;2.20;99.90
35970;DHT22;22448;51.298;6.430;2022-12-05T00:41:14;2.20;99.90
35970;DHT22;22448;51.298;6.430;2022-12-05T00:43:41;2.20;99.90
35970;DHT22;22448;51.298;6.430;2022-12-05T00:46:17;2.20;99.90
35970;DHT22;22448;51.298;6.430;2022-12-05T00:48:45;2.20;99.90
35970;DHT22;22448;51.298;6.430;2022-12-05T00:51:21;2.20;99.90
35970;DHT22;22448;51.298;6.430;2022-12-05T00:53:49;2.20;99.90
35970;DHT22;22448;51.298;6.430;2022-12-05T00:56:19;2.20;99.90
35970;DHT22;22448;51.298;6.430;2022-12-05T00:58:47;2.20;99.90
35970;DHT22;22448;51.298;6.430;2022-12-05T01:01:20;2.20;99.90
35970;DHT22;22448;51.298;6.430;2022-12-05T01:03:51;2.20;99.90
35970;DHT22;22448;51.298;6.430;2022-12-05T01:06:18;2.20;99.90
35970;DHT22;22448;51.298;6.430;2022-12-05T01:08:46;2.20;99.90
35970;DHT22;22448;51.298;6.430;2022-12-05T01:11:17;2.20;99.90
35970;DHT22;22448;51.298;6.430;2022-12-05T01:13:45;2.20;99.90
35970;DHT22;22448;51.298;6.430;2022-12-05T01:16:40;2.20;99.90
35970;DHT22;22448;51.298;6.430;2022-12-05T01:19:08;2.20;99.90
35970;DHT22;22448;51.298;6.430;2022-12-05T01:21:35;2.20;99.90
35970;DHT22;22448;51.298;6.430;2022-12-05T01:24:02;2.20;99.90
35970;DHT22;22448;51.298;6.430;2022-12-05T01:26:29;2.20;99.90
35970;DHT22;22448;51.298;6.430;2022-12-05T01:28:56;2.20;99.90
35970;DHT22;22448;51.298;6.430;2022-12-05T01:31:32;2.30;99.90
35970;DHT22;22448;51.298;6.430;2022-12-05T01:34:01;2.20;99.90
35970;DHT22;22448;51.298;6.430;2022-12-05T01:36:28;2.30;99.90
35970;DHT22;22448;51.298;6.430;2022-12-05T01:38:56;2.30;99.90
35970;DHT22;22448;51.298;6.430;2022-12-05T01:41:26;2.30;99.90
35970;DHT22;22448;51.298;6.430;2022-12-05T01:44:04;2.30;99.90
35970;DHT22;22448;51.298;6.430;2022-12-05T01:46:34;2.30;99.90
35970;DHT22;22448;51.298;6.430;2022-12-05T01:49:14;2.30;99.90
35970;DHT22;22448;51.298;6.430;2022-12-05T01:51:45;2.40;99.90
35970;DHT22;22448;51.298;6.430;2022-12-05T01:54:14;2.40;99.90
35970;DHT22;22448;51.298;6.430;2022-12-05T01:56:46;2.30;99.90
35970;DHT22;22448;51.298;6.430;2022-12-05T01:59:14;2.30;99.90
35970;DHT22;22448;51.298;6.430;2022-12-05T02:01:42;2.30;99.90
35970;DHT22;22448;51.298;6.430;2022-12-05T02:04:09;2.40;99.90
35970;DHT22;22448;51.298;6.430;2022-12-05T02:06:36;2.30;99.90
35970;DHT22;22448;51.298;6.430;2022-12-05T02:09:03;2.40;99.90
35970;DHT22;22448;51.298;6.430;2022-12-05T02:11:32;2.40;99.90
35970;DHT22;22448;51.298;6.430;2022-12-05T02:33:50;2.40;99.90
35970;DHT22;22448;51.298;6.430;2022-12-05T02:36:44;2.40;99.90
35970;DHT22;22448;51.298;6.430;2022-12-05T02:39:17;2.40;99.90
35970;DHT22;22448;51.298;6.430;2022-12-05T02:41:53;2.40;99.90
35970;DHT22;22448;51.298;6.430;2022-12-05T02:44:30;2.40;99.90
35970;DHT22;22448;51.298;6.430;2022-12-05T02:46:59;2.40;99.90
35970;DHT22;22448;51.298;6.430;2022-12-05T02:49:30;2.50;99.90
35970;DHT22;22448;51.298;6.430;2022-12-05T02:51:59;2.50;99.90
35970;DHT22;22448;51.298;6.430;2022-12-05T02:54:32;2.50;99.90
35970;DHT22;22448;51.298;6.430;2022-12-05T02:57:01;2.50;99.90
35970;DHT22;22448;51.298;6.430;2022-12-05T02:59:28;2.50;99.90
35970;DHT22;22448;51.298;6.430;2022-12-05T03:01:55;2.50;99.90
35970;DHT22;22448;51.298;6.430;2022-12-05T03:04:24;2.40;99.90
35970;DHT22;22448;51.298;6.430;2022-12-05T03:07:02;2.50;99.90
35970;DHT22;22448;51.298;6.430;2022-12-05T03:09:33;2.50;99.90
35970;DHT22;22448;51.298;6.430;2022-12-05T03:12:26;2.50;99.90
35970;DHT22;22448;51.298;6.430;2022-12-05T03:15:00;2.50;99.90
35970;DHT22;22448;51.298;6.430;2022-12-05T03:17:33;2.50;99.90
35970;DHT22;22448;51.298;6.430;2022-12-05T03:20:10;2.40;99.90
35970;DHT22;22448;51.298;6.430;2022-12-05T03:22:44;2.50;99.90
35970;DHT22;22448;51.298;6.430;2022-12-05T03:25:14;2.50;99.90
35970;DHT22;22448;51.298;6.430;2022-12-05T03:28:04;2.50;99.90
35970;DHT22;22448;51.298;6.430;2022-12-05T03:30:34;2.40;99.90
35970;DHT22;22448;51.298;6.430;2022-12-05T03:33:12;2.40;99.90
35970;DHT22;22448;51.298;6.430;2022-12-05T03:35:52;2.40;99.90
35970;DHT22;22448;51.298;6.430;2022-12-05T03:38:24;2.50;99.90
35970;DHT22;22448;51.298;6.430;2022-12-05T03:40:55;2.40;99.90
35970;DHT22;22448;51.298;6.430;2022-12-05T03:46:06;2.40;99.90
35970;DHT22;22448;51.298;6.430;2022-12-05T03:49:11;2.40;99.90
35970;DHT22;22448;51.298;6.430;2022-12-05T03:51:36;2.40;99.90
35970;DHT22;22448;51.298;6.430;2022-12-05T03:54:09;2.50;99.90
35970;DHT22;22448;51.298;6.430;2022-12-05T03:56:44;2.50;99.90
35970;DHT22;22448;51.298;6.430;2022-12-05T03:59:35;2.50;99.90
35970;DHT22;22448;51.298;6.430;2022-12-05T04:02:07;2.50;99.90
35970;DHT22;22448;51.298;6.430;2022-12-05T04:04:39;2.50;99.90
35970;DHT22;22448;51.298;6.430;2022-12-05T04:07:08;2.50;99.90
35970;DHT22;22448;51.298;6.430;2022-12-05T04:09:40;2.50;99.90
35970;DHT22;22448;51.298;6.430;2022-12-05T04:12:14;2.40;99.90
35970;DHT22;22448;51.298;6.430;2022-12-05T04:14:46;2.40;99.90
35970;DHT22;22448;51.298;6.430;2022-12-05T04:17:48;2.40;99.90
35970;DHT22;22448;51.298;6.430;2022-12-05T04:20:30;2.50;99.90
35970;DHT22;22448;51.298;6.430;2022-12-05T04:23:17;2.50;99.90
35970;DHT22;22448;51.298;6.430;2022-12-05T04:31:10;2.40;99.90
35970;DHT22;22448;51.298;6.430;2022-12-05T04:33:52;2.40;99.90
35970;DHT22;22448;51.298;6.430;2022-12-05T04:39:09;2.40;99.90
35970;DHT22;22448;51.298;6.430;2022-12-05T04:41:49;2.40;99.90
35970;DHT22;22448;51.298;6.430;2022-12-05T04:44:22;2.40;99.90
35970;DHT22;22448;51.298;6.430;2022-12-05T04:46:51;2.40;99.90
35970;DHT22;22448;51.298;6.430;2022-12-05T04:49:22;2.40;99.90
35970;DHT22;22448;51.298;6.430;2022-12-05T04:51:56;2.40;99.90
35970;DHT22;22448;51.298;6.430;2022-12-05T04:54:49;2.40;99.90
35970;DHT22;22448;51.298;6.430;2022-12-05T04:57:24;2.40;99.90
35970;DHT22;22448;51.298;6.430;2022-12-05T04:59:52;2.40;99.90
35970;DHT22;22448;51.298;6.430;2022-12-05T05:02:39;2.40;99.90
35970;DHT22;22448;51.298;6.430;2022-12-05T05:05:10;2.40;99.90
35970;DHT22;22448;51.298;6.430;2022-12-05T05:07:45;2.40;99.90
35970;DHT22;22448;51.298;6.430;2022-12-05T05:10:16;2.40;99.90
35970;DHT22;22448;51.298;6.430;2022-12-05T05:12:44;2.30;99.90
35970;DHT22;22448;51.298;6.430;2022-12-05T05:15:11;2.40;99.90
35970;DHT22;22448;51.298;6.430;2022-12-05T05:17:38;2.40;99.90
35970;DHT22;22448;51.298;6.430;2022-12-05T05:20:06;2.40;99.90
35970;DHT22;22448;51.298;6.430;2022-12-05T05:22:54;2.40;99.90
35970;DHT22;22448;51.298;6.430;2022-12-05T05:25:21;2.30;99.90
35970;DHT22;22448;51.298;6.430;2022-12-05T05:27:50;2.30;99.90
35970;DHT22;22448;51.298;6.430;2022-12-05T05:30:18;2.30;99.90
35970;DHT22;22448;51.298;6.430;2022-12-05T05:32:46;2.30;99.90
35970;DHT22;22448;51.298;6.430;2022-12-05T05:35:13;2.30;99.90
35970;DHT22;22448;51.298;6.430;2022-12-05T05:37:41;2.30;99.90
35970;DHT22;22448;51.298;6.430;2022-12-05T05:40:10;2.30;99.90
35970;DHT22;22448;51.298;6.430;2022-12-05T05:42:43;2.30;99.90
35970;DHT22;22448;51.298;6.430;2022-12-05T05:45:12;2.40;99.90
35970;DHT22;22448;51.298;6.430;2022-12-05T05:47:39;2.30;99.90
35970;DHT22;22448;51.298;6.430;2022-12-05T05:50:07;2.30;99.90
35970;DHT22;22448;51.298;6.430;2022-12-05T05:52:35;2.30;99.90
35970;DHT22;22448;51.298;6.430;2022-12-05T05:55:04;2.30;99.90
35970;DHT22;22448;51.298;6.430;2022-12-05T05:57:32;2.30;99.90
35970;DHT22;22448;51.298;6.430;2022-12-05T05:59:59;2.30;99.90
35970;DHT22;22448;51.298;6.430;2022-12-05T06:02:31;2.30;99.90
35970;DHT22;22448;51.298;6.430;2022-12-05T06:04:59;2.30;99.90
35970;DHT22;22448;51.298;6.430;2022-12-05T06:07:26;2.30;99.90
35970;DHT22;22448;51.298;6.430;2022-12-05T06:09:53;2.40;99.90
35970;DHT22;22448;51.298;6.430;2022-12-05T06:12:21;2.30;99.90
35970;DHT22;22448;51.298;6.430;2022-12-05T06:14:49;2.30;99.90
35970;DHT22;22448;51.298;6.430;2022-12-05T06:17:16;2.30;99.90
35970;DHT22;22448;51.298;6.430;2022-12-05T06:19:43;2.30;99.90
35970;DHT22;22448;51.298;6.430;2022-12-05T06:22:10;2.30;99.90
35970;DHT22;22448;51.298;6.430;2022-12-05T06:24:37;2.30;99.90
35970;DHT22;22448;51.298;6.430;2022-12-05T06:27:04;2.30;99.90
35970;DHT22;22448;51.298;6.430;2022-12-05T06:29:32;2.30;99.90
35970;DHT22;22448;51.298;6.430;2022-12-05T06:32:00;2.40;99.90
35970;DHT22;22448;51.298;6.430;2022-12-05T06:34:28;2.30;99.90
35970;DHT22;22448;51.298;6.430;2022-12-05T06:36:55;2.30;99.90
35970;DHT22;22448;51.298;6.430;2022-12-05T06:39:22;2.30;99.90
35970;DHT22;22448;51.298;6.430;2022-12-05T06:41:49;2.30;99.90
35970;DHT22;22448;51.298;6.430;2022-12-05T06:44:15;2.30;99.90
35970;DHT22;22448;51.298;6.430;2022-12-05T06:46:42;2.30;99.90
35970;DHT22;22448;51.298;6.430;2022-12-05T06:49:10;2.20;99.90
35970;DHT22;22448;51.298;6.430;2022-12-05T06:51:38;2.30;99.90
35970;DHT22;22448;51.298;6.430;2022-12-05T06:54:05;2.30;99.90
35970;DHT22;22448;51.298;6.430;2022-12-05T06:56:32;2.30;99.90
35970;DHT22;22448;51.298;6.430;2022-12-05T06:58:59;2.30;99.90
35970;DHT22;22448;51.298;6.430;2022-12-05T07:01:26;2.20;99.90
35970;DHT22;22448;51.298;6.430;2022-12-05T07:04:11;2.20;99.90
35970;DHT22;22448;51.298;6.430;2022-12-05T07:06:40;2.20;99.90
35970;DHT22;22448;51.298;6.430;2022-12-05T07:09:13;2.20;99.90
35970;DHT22;22448;51.298;6.430;2022-12-05T07:11:40;2.20;99.90
35970;DHT22;22448;51.298;6.430;2022-12-05T07:14:07;2.20;99.90
35970;DHT22;22448;51.298;6.430;2022-12-05T07:16:50;2.20;99.90
35970;DHT22;22448;51.298;6.430;2022-12-05T07:19:17;2.20;99.90
35970;DHT22;22448;51.298;6.430;2022-12-05T07:21:44;2.20;99.90
35970;DHT22;22448;51.298;6.430;2022-12-05T07:24:11;2.20;99.90
35970;DHT22;22448;51.298;6.430;2022-12-05T07:26:38;2.20;99.90
35970;DHT22;22448;51.298;6.430;2022-12-05T07:29:05;2.20;99.90
35970;DHT22;22448;51.298;6.430;2022-12-05T07:31:32;2.10;99.90
35970;DHT22;22448;51.298;6.430;2022-12-05T07:34:00;2.20;99.90
35970;DHT22;22448;51.298;6.430;2022-12-05T07:36:27;2.20;99.90
35970;DHT22;22448;51.298;6.430;2022-12-05T07:38:55;2.10;99.90
35970;DHT22;22448;51.298;6.430;2022-12-05T07:41:29;2.10;99.90
35970;DHT22;22448;51.298;6.430;2022-12-05T07:43:57;2.10;99.90
35970;DHT22;22448;51.298;6.430;2022-12-05T07:46:26;2.10;99.90
35970;DHT22;22448;51.298;6.430;2022-12-05T07:48:54;2.00;99.90
35970;DHT22;22448;51.298;6.430;2022-12-05T07:51:22;2.00;99.90
35970;DHT22;22448;51.298;6.430;2022-12-05T07:53:50;2.00;99.90
35970;DHT22;22448;51.298;6.430;2022-12-05T07:56:18;2.00;99.90
35970;DHT22;22448;51.298;6.430;2022-12-05T07:58:47;2.00;99.90
35970;DHT22;22448;51.298;6.430;2022-12-05T08:01:24;2.00;99.90
35970;DHT22;22448;51.298;6.430;2022-12-05T08:03:53;2.00;99.90
35970;DHT22;22448;51.298;6.430;2022-12-05T08:06:26;1.90;99.90
35970;DHT22;22448;51.298;6.430;2022-12-05T08:08:54;1.90;99.90
35970;DHT22;22448;51.298;6.430;2022-12-05T08:11:29;1.90;99.90
35970;DHT22;22448;51.298;6.430;2022-12-05T08:13:57;1.90;99.90
35970;DHT22;22448;51.298;6.430;2022-12-05T08:16:27;1.90;99.90
35970;DHT22;22448;51.298;6.430;2022-12-05T08:19:00;1.80;99.90
35970;DHT22;22448;51.298;6.430;2022-12-05T08:21:27;1.90;99.90
35970;DHT22;22448;51.298;6.430;2022-12-05T08:23:55;1.90;99.90
35970;DHT22;22448;51.298;6.430;2022-12-05T08:26:28;1.80;99.90
35970;DHT22;22448;51.298;6.430;2022-12-05T08:28:59;1.80;99.90
35970;DHT22;22448;51.298;6.430;2022-12-05T08:31:27;1.80;99.90
35970;DHT22;22448;51.298;6.430;2022-12-05T08:33:56;1.80;99.90
35970;DHT22;22448;51.298;6.430;2022-12-05T08:36:27;1.80;99.90
35970;DHT22;22448;51.298;6.430;2022-12-05T08:38:59;1.80;99.90
35970;DHT22;22448;51.298;6.430;2022-12-05T08:41:27;1.80;99.90
35970;DHT22;22448;51.298;6.430;2022-12-05T08:44:00;1.80;99.90
35970;DHT22;22448;51.298;6.430;2022-12-05T08:46:29;1.70;99.90
35970;DHT22;22448;51.298;6.430;2022-12-05T08:48:56;1.70;99.90
35970;DHT22;22448;51.298;6.430;2022-12-05T08:51:23;1.70;99.90
35970;DHT22;22448;51.298;6.430;2022-12-05T08:53:50;1.70;99.90
35970;DHT22;22448;51.298;6.430;2022-12-05T08:56:17;1.70;99.90
35970;DHT22;22448;51.298;6.430;2022-12-05T08:58:52;1.70;99.90
35970;DHT22;22448;51.298;6.430;2022-12-05T09:01:20;1.70;99.90
35970;DHT22;22448;51.298;6.430;2022-12-05T09:03:48;1.70;99.90
35970;DHT22;22448;51.298;6.430;2022-12-05T09:06:20;1.70;99.90
35970;DHT22;22448;51.298;6.430;2022-12-05T09:08:48;1.60;99.90
35970;DHT22;22448;51.298;6.430;2022-12-05T09:11:18;1.60;99.90
35970;DHT22;22448;51.298;6.430;2022-12-05T09:13:46;1.60;99.90
35970;DHT22;22448;51.298;6.430;2022-12-05T09:16:16;1.50;99.90
35970;DHT22;22448;51.298;6.430;2022-12-05T09:18:44;1.60;99.90
35970;DHT22;22448;51.298;6.430;2022-12-05T09:21:13;1.60;99.90
35970;DHT22;22448;51.298;6.430;2022-12-05T09:23:41;1.60;99.90
35970;DHT22;22448;51.298;6.430;2022-12-05T09:26:11;1.60;99.90
35970;DHT22;22448;51.298;6.430;2022-12-05T09:28:38;1.60;99.90
35970;DHT22;22448;51.298;6.430;2022-12-05T09:31:10;1.60;99.90
35970;DHT22;22448;51.298;6.430;2022-12-05T09:33:38;1.70;99.90
35970;DHT22;22448;51.298;6.430;2022-12-05T09:36:08;1.70;99.90
35970;DHT22;22448;51.298;6.430;2022-12-05T09:38:37;1.70;99.90
35970;DHT22;22448;51.298;6.430;2022-12-05T09:46:48;1.70;99.90
35970;DHT22;22448;51.298;6.430;2022-12-05T09:49:17;1.70;99.90
35970;DHT22;22448;51.298;6.430;2022-12-05T09:51:45;1.70;99.90
35970;DHT22;22448;51.298;6.430;2022-12-05T09:54:21;1.80;99.90
35970;DHT22;22448;51.298;6.430;2022-12-05T09:56:50;1.80;99.90
35970;DHT22;22448;51.298;6.430;2022-12-05T09:59:36;1.80;99.90
35970;DHT22;22448;51.298;6.430;2022-12-05T10:02:27;1.80;99.90
35970;DHT22;22448;51.298;6.430;2022-12-05T10:05:10;1.80;99.90
35970;DHT22;22448;51.298;6.430;2022-12-05T10:08:18;1.70;99.90
35970;DHT22;22448;51.298;6.430;2022-12-05T10:11:00;1.60;99.90
35970;DHT22;22448;51.298;6.430;2022-12-05T10:16:13;1.60;99.90
35970;DHT22;22448;51.298;6.430;2022-12-05T10:18:59;1.60;99.90
35970;DHT22;22448;51.298;6.430;2022-12-05T10:21:49;1.60;99.90
35970;DHT22;22448;51.298;6.430;2022-12-05T10:24:25;1.60;99.90
35970;DHT22;22448;51.298;6.430;2022-12-05T10:27:00;1.60;99.90
35970;DHT22;22448;51.298;6.430;2022-12-05T10:29:32;1.60;99.90
35970;DHT22;22448;51.298;6.430;2022-12-05T10:32:14;1.60;99.90
35970;DHT22;22448;51.298;6.430;2022-12-05T10:34:43;1.60;99.90
35970;DHT22;22448;51.298;6.430;2022-12-05T10:37:15;1.60;99.90
35970;DHT22;22448;51.298;6.430;2022-12-05T10:39:43;1.60;99.90
35970;DHT22;22448;51.298;6.430;2022-12-05T10:42:22;1.60;99.90
35970;DHT22;22448;51.298;6.430;2022-12-05T10:45:02;1.60;99.90
35970;DHT22;22448;51.298;6.430;2022-12-05T10:47:32;1.50;99.90
35970;DHT22;22448;51.298;6.430;2022-12-05T10:50:07;1.50;99.90
35970;DHT22;22448;51.298;6.430;2022-12-05T10:52:42;1.50;99.90
35970;DHT22;22448;51.298;6.430;2022-12-05T10:55:13;1.60;99.90
35970;DHT22;22448;51.298;6.430;2022-12-05T10:57:42;1.60;99.90
35970;DHT22;22448;51.298;6.430;2022-12-05T11:00:13;1.60;99.90
35970;DHT22;22448;51.298;6.430;2022-12-05T11:02:42;1.60;99.90
35970;DHT22;22448;51.298;6.430;2022-12-05T11:05:09;1.50;99.90
35970;DHT22;22448;51.298;6.430;2022-12-05T11:07:46;1.50;99.90
35970;DHT22;22448;51.298;6.430;2022-12-05T11:10:21;1.50;99.90
35970;DHT22;22448;51.298;6.430;2022-12-05T11:12:56;1.50;99.90
35970;DHT22;22448;51.298;6.430;2022-12-05T11:15:26;1.60;99.90
35970;DHT22;22448;51.298;6.430;2022-12-05T11:17:56;1.60;99.90
35970;DHT22;22448;51.298;6.430;2022-12-05T11:22:55;1.50;99.90
35970;DHT22;22448;51.298;6.430;2022-12-05T11:25:31;1.50;99.90
35970;DHT22;22448;51.298;6.430;2022-12-05T11:31:18;1.60;99.90
35970;DHT22;22448;51.298;6.430;2022-12-05T11:33:41;1.50;99.90
35970;DHT22;22448;51.298;6.430;2022-12-05T11:36:21;1.50;99.90
35970;DHT22;22448;51.298;6.430;2022-12-05T11:38:50;1.50;99.90
35970;DHT22;22448;51.298;6.430;2022-12-05T11:52:11;1.40;99.90
35970;DHT22;22448;51.298;6.430;2022-12-05T11:54:54;1.50;99.90
35970;DHT22;22448;51.298;6.430;2022-12-05T12:11:51;1.40;99.90
35970;DHT22;22448;51.298;6.430;2022-12-05T12:17:13;1.40;99.90
35970;DHT22;22448;51.298;6.430;2022-12-05T12:25:42;1.50;99.90
35970;DHT22;22448;51.298;6.430;2022-12-05T12:28:38;1.50;99.90
35970;DHT22;22448;51.298;6.430;2022-12-05T12:36:54;1.60;99.90
35970;DHT22;22448;51.298;6.430;2022-12-05T12:39:38;1.60;99.90
35970;DHT22;22448;51.298;6.430;2022-12-05T12:50:33;1.60;99.90
35970;DHT22;22448;51.298;6.430;2022-12-05T12:53:40;1.60;99.90
35970;DHT22;22448;51.298;6.430;2022-12-05T13:02:08;1.60;99.90
35970;DHT22;22448;51.298;6.430;2022-12-05T13:04:56;1.50;99.90
35970;DHT22;22448;51.298;6.430;2022-12-05T13:07:39;1.50;99.90
35970;DHT22;22448;51.298;6.430;2022-12-05T13:10:16;1.50;99.90
35970;DHT22;22448;51.298;6.430;2022-12-05T13:12:47;1.50;99.90
35970;DHT22;22448;51.298;6.430;2022-12-05T13:15:18;1.50;99.90
35970;DHT22;22448;51.298;6.430;2022-12-05T13:17:50;1.50;99.90
35970;DHT22;22448;51.298;6.430;2022-12-05T13:20:24;1.50;99.90
35970;DHT22;22448;51.298;6.430;2022-12-05T13:22:53;1.50;99.90
35970;DHT22;22448;51.298;6.430;2022-12-05T13:25:23;1.40;99.90
35970;DHT22;22448;51.298;6.430;2022-12-05T13:30:52;1.30;99.90
35970;DHT22;22448;51.298;6.430;2022-12-05T13:33:49;1.30;99.90
35970;DHT22;22448;51.298;6.430;2022-12-05T13:36:20;1.30;99.90
35970;DHT22;22448;51.298;6.430;2022-12-05T13:39:15;1.20;99.90
35970;DHT22;22448;51.298;6.430;2022-12-05T13:42:02;1.30;99.90
35970;DHT22;22448;51.298;6.430;2022-12-05T13:44:49;1.20;99.90
35970;DHT22;22448;51.298;6.430;2022-12-05T13:49:53;1.20;99.90
35970;DHT22;22448;51.298;6.430;2022-12-05T13:52:25;1.10;99.90
35970;DHT22;22448;51.298;6.430;2022-12-05T14:07:55;1.00;99.90
35970;DHT22;22448;51.298;6.430;2022-12-05T14:15:45;1.00;99.90
35970;DHT22;22448;51.298;6.430;2022-12-05T14:18:16;1.00;99.90
35970;DHT22;22448;51.298;6.430;2022-12-05T14:26:26;1.00;99.90
35970;DHT22;22448;51.298;6.430;2022-12-05T14:34:34;1.00;99.90
35970;DHT22;22448;51.298;6.430;2022-12-05T14:37:05;1.00;99.90
35970;DHT22;22448;51.298;6.430;2022-12-05T14:39:38;0.90;99.90
35970;DHT22;22448;51.298;6.430;2022-12-05T14:42:37;0.90;99.90
35970;DHT22;22448;51.298;6.430;2022-12-05T14:47:52;0.80;99.90
35970;DHT22;22448;51.298;6.430;2022-12-05T14:53:18;0.70;99.90
35970;DHT22;22448;51.298;6.430;2022-12-05T15:01:28;0.70;99.90
35970;DHT22;22448;51.298;6.430;2022-12-05T15:06:36;0.60;99.90
35970;DHT22;22448;51.298;6.430;2022-12-05T15:09:40;0.60;99.90
35970;DHT22;22448;51.298;6.430;2022-12-05T15:12:13;0.60;99.90
35970;DHT22;22448;51.298;6.430;2022-12-05T15:14:54;0.60;99.90
35970;DHT22;22448;51.298;6.430;2022-12-05T15:17:26;0.50;99.90
35970;DHT22;22448;51.298;6.430;2022-12-05T15:20:10;0.50;99.90
35970;DHT22;22448;51.298;6.430;2022-12-05T15:22:41;0.50;99.90
35970;DHT22;22448;51.298;6.430;2022-12-05T15:25:26;0.50;99.90
35970;DHT22;22448;51.298;6.430;2022-12-05T15:28:04;0.50;99.90
35970;DHT22;22448;51.298;6.430;2022-12-05T15:30:35;0.50;99.90
35970;DHT22;22448;51.298;6.430;2022-12-05T15:33:11;0.50;99.90
35970;DHT22;22448;51.298;6.430;2022-12-05T15:35:38;0.50;99.90
35970;DHT22;22448;51.298;6.430;2022-12-05T15:38:23;0.40;99.90
35970;DHT22;22448;51.298;6.430;2022-12-05T15:40:54;0.40;99.90
35970;DHT22;22448;51.298;6.430;2022-12-05T15:43:31;0.40;99.90
35970;DHT22;22448;51.298;6.430;2022-12-05T15:46:17;0.40;99.90
35970;DHT22;22448;51.298;6.430;2022-12-05T15:48:54;0.40;99.90
35970;DHT22;22448;51.298;6.430;2022-12-05T15:51:35;0.40;99.90
35970;DHT22;22448;51.298;6.430;2022-12-05T15:54:10;0.40;99.90
35970;DHT22;22448;51.298;6.430;2022-12-05T15:56:41;0.40;99.90
35970;DHT22;22448;51.298;6.430;2022-12-05T15:59:19;0.40;99.90
35970;DHT22;22448;51.298;6.430;2022-12-05T16:01:51;0.40;99.90
35970;DHT22;22448;51.298;6.430;2022-12-05T16:04:33;0.40;99.90
35970;DHT22;22448;51.298;6.430;2022-12-05T16:07:05;0.40;99.90
35970;DHT22;22448;51.298;6.430;2022-12-05T16:09:38;0.40;99.90
35970;DHT22;22448;51.298;6.430;2022-12-05T16:14:54;0.40;99.90
35970;DHT22;22448;51.298;6.430;2022-12-05T16:17:28;0.40;99.90
35970;DHT22;22448;51.298;6.430;2022-12-05T16:20:20;0.40;99.90
35970;DHT22;22448;51.298;6.430;2022-12-05T16:23:04;0.40;99.90
35970;DHT22;22448;51.298;6.430;2022-12-05T16:25:35;0.40;99.90
35970;DHT22;22448;51.298;6.430;2022-12-05T16:30:36;0.40;99.90
35970;DHT22;22448;51.298;6.430;2022-12-05T16:33:06;0.40;99.90
35970;DHT22;22448;51.298;6.430;2022-12-05T16:35:41;0.40;99.90
35970;DHT22;22448;51.298;6.430;2022-12-05T16:38:19;0.40;99.90
35970;DHT22;22448;51.298;6.430;2022-12-05T16:40:57;0.40;99.90
35970;DHT22;22448;51.298;6.430;2022-12-05T16:48:44;0.40;99.90
35970;DHT22;22448;51.298;6.430;2022-12-05T16:53:59;0.40;99.90
35970;DHT22;22448;51.298;6.430;2022-12-05T16:56:29;0.40;99.90
35970;DHT22;22448;51.298;6.430;2022-12-05T16:58:57;0.40;99.90
35970;DHT22;22448;51.298;6.430;2022-12-05T17:01:27;0.40;99.90
35970;DHT22;22448;51.298;6.430;2022-12-05T17:03:58;0.40;99.90
35970;DHT22;22448;51.298;6.430;2022-12-05T17:06:26;0.40;99.90
35970;DHT22;22448;51.298;6.430;2022-12-05T17:08:53;0.40;99.90
35970;DHT22;22448;51.298;6.430;2022-12-05T17:11:23;0.40;99.90
35970;DHT22;22448;51.298;6.430;2022-12-05T17:13:53;0.40;99.90
35970;DHT22;22448;51.298;6.430;2022-12-05T17:16:21;0.40;99.90
35970;DHT22;22448;51.298;6.430;2022-12-05T17:18:48;0.40;99.90
35970;DHT22;22448;51.298;6.430;2022-12-05T17:21:23;0.40;99.90
35970;DHT22;22448;51.298;6.430;2022-12-05T17:23:51;0.40;99.90
35970;DHT22;22448;51.298;6.430;2022-12-05T17:26:19;0.40;99.90
35970;DHT22;22448;51.298;6.430;2022-12-05T17:28:47;0.40;99.90
35970;DHT22;22448;51.298;6.430;2022-12-05T17:31:17;0.50;99.90
35970;DHT22;22448;51.298;6.430;2022-12-05T17:33:44;0.50;99.90
35970;DHT22;22448;51.298;6.430;2022-12-05T17:36:12;0.50;99.90
35970;DHT22;22448;51.298;6.430;2022-12-05T17:38:40;0.50;99.90
35970;DHT22;22448;51.298;6.430;2022-12-05T17:41:08;0.50;99.90
35970;DHT22;22448;51.298;6.430;2022-12-05T17:43:36;0.50;99.90
35970;DHT22;22448;51.298;6.430;2022-12-05T17:46:03;0.50;99.90
35970;DHT22;22448;51.298;6.430;2022-12-05T17:48:29;0.50;99.90
35970;DHT22;22448;51.298;6.430;2022-12-05T17:50:56;0.50;99.90
35970;DHT22;22448;51.298;6.430;2022-12-05T17:53:23;0.50;99.90
35970;DHT22;22448;51.298;6.430;2022-12-05T17:55:50;0.50;99.90
35970;DHT22;22448;51.298;6.430;2022-12-05T17:58:18;0.50;99.90
35970;DHT22;22448;51.298;6.430;2022-12-05T18:00:45;0.50;99.90
35970;DHT22;22448;51.298;6.430;2022-12-05T18:03:15;0.50;99.90
35970;DHT22;22448;51.298;6.430;2022-12-05T18:05:44;0.60;99.90
35970;DHT22;22448;51.298;6.430;2022-12-05T18:08:12;0.50;99.90
35970;DHT22;22448;51.298;6.430;2022-12-05T18:10:41;0.60;99.90
35970;DHT22;22448;51.298;6.430;2022-12-05T18:13:09;0.60;99.90
35970;DHT22;22448;51.298;6.430;2022-12-05T18:15:36;0.60;99.90
35970;DHT22;22448;51.298;6.430;2022-12-05T18:18:14;0.60;99.90
35970;DHT22;22448;51.298;6.430;2022-12-05T18:20:41;0.60;99.90
35970;DHT22;22448;51.298;6.430;2022-12-05T18:23:09;0.60;99.90
35970;DHT22;22448;51.298;6.430;2022-12-05T18:25:37;0.60;99.90
35970;DHT22;22448;51.298;6.430;2022-12-05T18:28:03;0.60;99.90
35970;DHT22;22448;51.298;6.430;2022-12-05T18:30:30;0.60;99.90
35970;DHT22;22448;51.298;6.430;2022-12-05T18:32:57;0.60;99.90
35970;DHT22;22448;51.298;6.430;2022-12-05T18:35:24;0.60;99.90
35970;DHT22;22448;51.298;6.430;2022-12-05T18:38:09;0.60;99.90
35970;DHT22;22448;51.298;6.430;2022-12-05T18:40:36;0.60;99.90
35970;DHT22;22448;51.298;6.430;2022-12-05T18:43:03;0.60;99.90
35970;DHT22;22448;51.298;6.430;2022-12-05T18:45:30;0.70;99.90
35970;DHT22;22448;51.298;6.430;2022-12-05T18:47:57;0.70;99.90
35970;DHT22;22448;51.298;6.430;2022-12-05T18:50:41;0.70;99.90
35970;DHT22;22448;51.298;6.430;2022-12-05T18:53:08;0.70;99.90
35970;DHT22;22448;51.298;6.430;2022-12-05T18:55:35;0.70;99.90
35970;DHT22;22448;51.298;6.430;2022-12-05T18:58:22;0.70;99.90
35970;DHT22;22448;51.298;6.430;2022-12-05T19:00:49;0.70;99.90